Time;durP1;ratioP1;P1;durP2;ratioP2;P2;SDS_P1;SDS_P2;PMS_P1;PMS_P2;Temp;Humidity;BMP_temperature;BMP_pressure;BME280_temperature;BME280_humidity;BME280_pressure;Samples;Min_cycle;Max_cycle;Signal;HPM_P1;HPM_P2
2020/10/17 00:00:58;;;;;;;32.05;19.35;;;;;;;6.96;100;95246.59;;;;
2020/10/17 00:01:58;;;;;;;32.05;19.35;;;;;;;6.96;100;95246.59;;;;
2020/10/17 00:02:59;;;;;;;32.05;19.35;;;;;;;6.96;100;95246.59;;;;
2020/10/17 00:03:59;;;;;;;32.05;19.35;;;;;;;6.96;100;95246.59;;;;
2020/10/17 00:05:02;;;;;;;32.05;19.35;;;;;;;6.96;100;95246.59;;;;
2020/10/17 00:06:02;;;;;;;32.05;19.35;;;;;;;6.96;100;95246.59;;;;
2020/10/17 00:07:03;;;;;;;32.05;19.35;;;;;;;6.96;100;95246.59;;;;
2020/10/17 00:08:04;;;;;;;37.3;20.2;;;;;;;7.01;100;95244.08;;;;
2020/10/17 00:09:04;;;;;;;37.3;20.2;;;;;;;7.01;100;95244.08;;;;
2020/10/17 00:10:06;;;;;;;37.3;20.2;;;;;;;7.01;100;95244.08;;;;
2020/10/17 00:11:09;;;;;;;37.3;20.2;;;;;;;7.01;100;95244.08;;;;
2020/10/17 00:12:11;;;;;;;37.3;20.2;;;;;;;7.01;100;95244.08;;;;
2020/10/17 00:13:12;;;;;;;37.3;20.2;;;;;;;7.01;100;95244.08;;;;
2020/10/17 00:14:12;;;;;;;37.3;20.2;;;;;;;7.01;100;95244.08;;;;
2020/10/17 00:15:16;;;;;;;37.3;20.2;;;;;;;7.01;100;95244.08;;;;
2020/10/17 00:16:17;;;;;;;37.3;20.2;;;;;;;7.01;100;95244.08;;;;
2020/10/17 00:17:17;;;;;;;37.3;20.2;;;;;;;7.01;100;95244.08;;;;
2020/10/17 00:18:18;;;;;;;37.3;20.2;;;;;;;7.01;100;95244.08;;;;
2020/10/17 00:19:18;;;;;;;35.05;21.8;;;;;;;7.05;100;95235.91;;;;
2020/10/17 00:20:20;;;;;;;35.05;21.8;;;;;;;7.05;100;95235.91;;;;
2020/10/17 00:21:20;;;;;;;35.05;21.8;;;;;;;7.05;100;95235.91;;;;
2020/10/17 00:22:21;;;;;;;35.05;21.8;;;;;;;7.05;100;95235.91;;;;
2020/10/17 00:23:22;;;;;;;35.05;21.8;;;;;;;7.05;100;95235.91;;;;
2020/10/17 00:24:22;;;;;;;35.05;21.8;;;;;;;7.05;100;95235.91;;;;
2020/10/17 00:25:26;;;;;;;35.05;21.8;;;;;;;7.05;100;95235.91;;;;
2020/10/17 00:26:26;;;;;;;35.05;21.8;;;;;;;7.05;100;95235.91;;;;
2020/10/17 00:27:28;;;;;;;35.05;21.8;;;;;;;7.05;100;95235.91;;;;
2020/10/17 00:28:28;;;;;;;35.05;21.8;;;;;;;7.05;100;95235.91;;;;
2020/10/17 00:29:29;;;;;;;36.45;23.15;;;;;;;7;100;95241.06;;;;
2020/10/17 00:30:31;;;;;;;36.45;23.15;;;;;;;7;100;95241.06;;;;
2020/10/17 00:31:32;;;;;;;36.45;23.15;;;;;;;7;100;95241.06;;;;
2020/10/17 00:32:32;;;;;;;36.45;23.15;;;;;;;7;100;95241.06;;;;
2020/10/17 00:33:33;;;;;;;36.45;23.15;;;;;;;7;100;95241.06;;;;
2020/10/17 00:34:34;;;;;;;36.45;23.15;;;;;;;7;100;95241.06;;;;
2020/10/17 00:35:34;;;;;;;36.45;23.15;;;;;;;7;100;95241.06;;;;
2020/10/17 00:36:35;;;;;;;36.45;23.15;;;;;;;7;100;95241.06;;;;
2020/10/17 00:37:38;;;;;;;36.45;23.15;;;;;;;7;100;95241.06;;;;
2020/10/17 00:38:38;;;;;;;36.45;23.15;;;;;;;7;100;95241.06;;;;
2020/10/17 00:39:39;;;;;;;36.45;23.15;;;;;;;7;100;95241.06;;;;
2020/10/17 00:40:39;;;;;;;37.65;22.8;;;;;;;6.95;100;95247.61;;;;
2020/10/17 00:41:40;;;;;;;37.65;22.8;;;;;;;6.95;100;95247.61;;;;
2020/10/17 00:42:41;;;;;;;37.65;22.8;;;;;;;6.95;100;95247.61;;;;
2020/10/17 00:43:42;;;;;;;37.65;22.8;;;;;;;6.95;100;95247.61;;;;
2020/10/17 00:44:42;;;;;;;37.65;22.8;;;;;;;6.95;100;95247.61;;;;
2020/10/17 00:45:43;;;;;;;37.65;22.8;;;;;;;6.95;100;95247.61;;;;
2020/10/17 00:46:47;;;;;;;37.65;22.8;;;;;;;6.95;100;95247.61;;;;
2020/10/17 00:47:55;;;;;;;37.65;22.8;;;;;;;6.95;100;95247.61;;;;
2020/10/17 00:48:59;;;;;;;37.65;22.8;;;;;;;6.95;100;95247.61;;;;
2020/10/17 00:50:02;;;;;;;37.65;22.8;;;;;;;6.95;100;95247.61;;;;
2020/10/17 00:51:04;;;;;;;38.6;23.4;;;;;;;6.89;100;95234.94;;;;
2020/10/17 00:52:05;;;;;;;38.6;23.4;;;;;;;6.89;100;95234.94;;;;
2020/10/17 00:53:07;;;;;;;38.6;23.4;;;;;;;6.89;100;95234.94;;;;
2020/10/17 00:54:11;;;;;;;38.6;23.4;;;;;;;6.89;100;95234.94;;;;
2020/10/17 00:55:17;;;;;;;38.6;23.4;;;;;;;6.89;100;95234.94;;;;
2020/10/17 00:56:18;;;;;;;38.6;23.4;;;;;;;6.89;100;95234.94;;;;
2020/10/17 00:57:24;;;;;;;38.6;23.4;;;;;;;6.89;100;95234.94;;;;
2020/10/17 00:58:31;;;;;;;38.6;23.4;;;;;;;6.89;100;95234.94;;;;
2020/10/17 00:59:37;;;;;;;38.6;23.4;;;;;;;6.89;100;95234.94;;;;
2020/10/17 01:00:44;;;;;;;38.6;23.4;;;;;;;6.89;100;95234.94;;;;
2020/10/17 01:01:45;;;;;;;38.3;22.6;;;;;;;6.84;100;95223.21;;;;
2020/10/17 01:02:46;;;;;;;38.3;22.6;;;;;;;6.84;100;95223.21;;;;
2020/10/17 01:03:49;;;;;;;38.3;22.6;;;;;;;6.84;100;95223.21;;;;
2020/10/17 01:04:50;;;;;;;38.3;22.6;;;;;;;6.84;100;95223.21;;;;
2020/10/17 01:05:51;;;;;;;38.3;22.6;;;;;;;6.84;100;95223.21;;;;
2020/10/17 01:06:51;;;;;;;38.3;22.6;;;;;;;6.84;100;95223.21;;;;
2020/10/17 01:07:52;;;;;;;38.3;22.6;;;;;;;6.84;100;95223.21;;;;
2020/10/17 01:08:56;;;;;;;38.3;22.6;;;;;;;6.84;100;95223.21;;;;
2020/10/17 01:09:58;;;;;;;38.3;22.6;;;;;;;6.84;100;95223.21;;;;
2020/10/17 01:10:59;;;;;;;38.3;22.6;;;;;;;6.84;100;95223.21;;;;
2020/10/17 01:12:04;;;;;;;41.55;24.3;;;;;;;6.8;100;95226.42;;;;
2020/10/17 01:13:41;;;;;;;41.55;24.3;;;;;;;6.8;100;95226.42;;;;
2020/10/17 01:14:41;;;;;;;41.55;24.3;;;;;;;6.8;100;95226.42;;;;
2020/10/17 01:15:47;;;;;;;41.55;24.3;;;;;;;6.8;100;95226.42;;;;
2020/10/17 01:16:48;;;;;;;41.55;24.3;;;;;;;6.8;100;95226.42;;;;
2020/10/17 01:17:49;;;;;;;41.55;24.3;;;;;;;6.8;100;95226.42;;;;
2020/10/17 01:18:49;;;;;;;41.55;24.3;;;;;;;6.8;100;95226.42;;;;
2020/10/17 01:19:52;;;;;;;41.55;24.3;;;;;;;6.8;100;95226.42;;;;
2020/10/17 01:20:52;;;;;;;41.55;24.3;;;;;;;6.8;100;95226.42;;;;
2020/10/17 01:21:54;;;;;;;41.55;24.3;;;;;;;6.8;100;95226.42;;;;
2020/10/17 01:22:54;;;;;;;42.29999;24.25;;;;;;;6.77;100;95213.01;;;;
2020/10/17 01:23:55;;;;;;;42.29999;24.25;;;;;;;6.77;100;95213.01;;;;
2020/10/17 01:24:56;;;;;;;42.29999;24.25;;;;;;;6.77;100;95213.01;;;;
2020/10/17 01:25:57;;;;;;;42.29999;24.25;;;;;;;6.77;100;95213.01;;;;
2020/10/17 01:26:57;;;;;;;42.29999;24.25;;;;;;;6.77;100;95213.01;;;;
2020/10/17 01:27:58;;;;;;;42.29999;24.25;;;;;;;6.77;100;95213.01;;;;
2020/10/17 01:28:59;;;;;;;42.29999;24.25;;;;;;;6.77;100;95213.01;;;;
2020/10/17 01:30:00;;;;;;;42.29999;24.25;;;;;;;6.77;100;95213.01;;;;
2020/10/17 01:31:01;;;;;;;42.29999;24.25;;;;;;;6.77;100;95213.01;;;;
2020/10/17 01:32:04;;;;;;;42.29999;24.25;;;;;;;6.77;100;95213.01;;;;
2020/10/17 01:33:06;;;;;;;42.29999;24.25;;;;;;;6.77;100;95213.01;;;;
2020/10/17 01:34:07;;;;;;;38.6;22.95;;;;;;;6.76;100;95209.12;;;;
2020/10/17 01:35:08;;;;;;;38.6;22.95;;;;;;;6.76;100;95209.12;;;;
2020/10/17 01:36:09;;;;;;;38.6;22.95;;;;;;;6.76;100;95209.12;;;;
2020/10/17 01:37:09;;;;;;;38.6;22.95;;;;;;;6.76;100;95209.12;;;;
2020/10/17 01:38:10;;;;;;;38.6;22.95;;;;;;;6.76;100;95209.12;;;;
2020/10/17 01:39:10;;;;;;;38.6;22.95;;;;;;;6.76;100;95209.12;;;;
2020/10/17 01:40:11;;;;;;;38.6;22.95;;;;;;;6.76;100;95209.12;;;;
2020/10/17 01:41:11;;;;;;;38.6;22.95;;;;;;;6.76;100;95209.12;;;;
2020/10/17 01:42:12;;;;;;;38.6;22.95;;;;;;;6.76;100;95209.12;;;;
2020/10/17 01:43:12;;;;;;;38.6;22.95;;;;;;;6.76;100;95209.12;;;;
2020/10/17 01:44:13;;;;;;;35.2;22.50001;;;;;;;6.72;100;95208.4;;;;
2020/10/17 01:45:13;;;;;;;35.2;22.50001;;;;;;;6.72;100;95208.4;;;;
2020/10/17 01:46:14;;;;;;;35.2;22.50001;;;;;;;6.72;100;95208.4;;;;
2020/10/17 01:47:14;;;;;;;35.2;22.50001;;;;;;;6.72;100;95208.4;;;;
2020/10/17 01:48:15;;;;;;;35.2;22.50001;;;;;;;6.72;100;95208.4;;;;
2020/10/17 01:49:16;;;;;;;35.2;22.50001;;;;;;;6.72;100;95208.4;;;;
2020/10/17 01:50:16;;;;;;;35.2;22.50001;;;;;;;6.72;100;95208.4;;;;
2020/10/17 01:51:17;;;;;;;35.2;22.50001;;;;;;;6.72;100;95208.4;;;;
2020/10/17 01:52:22;;;;;;;35.2;22.50001;;;;;;;6.72;100;95208.4;;;;
2020/10/17 01:53:22;;;;;;;35.2;22.50001;;;;;;;6.72;100;95208.4;;;;
2020/10/17 01:54:24;;;;;;;35.2;22.50001;;;;;;;6.72;100;95208.4;;;;
2020/10/17 01:55:25;;;;;;;36.55;21.75;;;;;;;6.67;100;95198.85;;;;
2020/10/17 01:56:25;;;;;;;36.55;21.75;;;;;;;6.67;100;95198.85;;;;
2020/10/17 01:57:27;;;;;;;36.55;21.75;;;;;;;6.67;100;95198.85;;;;
2020/10/17 01:58:27;;;;;;;36.55;21.75;;;;;;;6.67;100;95198.85;;;;
2020/10/17 01:59:28;;;;;;;36.55;21.75;;;;;;;6.67;100;95198.85;;;;
2020/10/17 02:00:29;;;;;;;36.55;21.75;;;;;;;6.67;100;95198.85;;;;
2020/10/17 02:01:29;;;;;;;36.55;21.75;;;;;;;6.67;100;95198.85;;;;
2020/10/17 02:02:30;;;;;;;36.55;21.75;;;;;;;6.67;100;95198.85;;;;
2020/10/17 02:03:30;;;;;;;36.55;21.75;;;;;;;6.67;100;95198.85;;;;
2020/10/17 02:04:31;;;;;;;36.55;21.75;;;;;;;6.67;100;95198.85;;;;
2020/10/17 02:05:31;;;;;;;36.75;22.45;;;;;;;6.63;100;95204.32;;;;
2020/10/17 02:06:32;;;;;;;36.75;22.45;;;;;;;6.63;100;95204.32;;;;
2020/10/17 02:07:32;;;;;;;36.75;22.45;;;;;;;6.63;100;95204.32;;;;
2020/10/17 02:08:33;;;;;;;36.75;22.45;;;;;;;6.63;100;95204.32;;;;
2020/10/17 02:09:34;;;;;;;36.75;22.45;;;;;;;6.63;100;95204.32;;;;
2020/10/17 02:10:35;;;;;;;36.75;22.45;;;;;;;6.63;100;95204.32;;;;
2020/10/17 02:11:35;;;;;;;36.75;22.45;;;;;;;6.63;100;95204.32;;;;
2020/10/17 02:12:36;;;;;;;36.75;22.45;;;;;;;6.63;100;95204.32;;;;
2020/10/17 02:13:37;;;;;;;36.75;22.45;;;;;;;6.63;100;95204.32;;;;
2020/10/17 02:14:39;;;;;;;36.75;22.45;;;;;;;6.63;100;95204.32;;;;
2020/10/17 02:15:39;;;;;;;36.75;22.45;;;;;;;6.63;100;95204.32;;;;
2020/10/17 02:16:40;;;;;;;38.05;22.25;;;;;;;6.59;100;95202.17;;;;
2020/10/17 02:17:40;;;;;;;38.05;22.25;;;;;;;6.59;100;95202.17;;;;
2020/10/17 02:18:41;;;;;;;38.05;22.25;;;;;;;6.59;100;95202.17;;;;
2020/10/17 02:19:42;;;;;;;38.05;22.25;;;;;;;6.59;100;95202.17;;;;
2020/10/17 02:20:42;;;;;;;38.05;22.25;;;;;;;6.59;100;95202.17;;;;
2020/10/17 02:21:43;;;;;;;38.05;22.25;;;;;;;6.59;100;95202.17;;;;
2020/10/17 02:22:43;;;;;;;38.05;22.25;;;;;;;6.59;100;95202.17;;;;
2020/10/17 02:23:44;;;;;;;38.05;22.25;;;;;;;6.59;100;95202.17;;;;
2020/10/17 02:24:45;;;;;;;38.05;22.25;;;;;;;6.59;100;95202.17;;;;
2020/10/17 02:25:45;;;;;;;38.05;22.25;;;;;;;6.59;100;95202.17;;;;
2020/10/17 02:26:46;;;;;;;36.05;21.75;;;;;;;6.53;100;95203.97;;;;
2020/10/17 02:27:47;;;;;;;36.05;21.75;;;;;;;6.53;100;95203.97;;;;
2020/10/17 02:28:48;;;;;;;36.05;21.75;;;;;;;6.53;100;95203.97;;;;
2020/10/17 02:29:48;;;;;;;36.05;21.75;;;;;;;6.53;100;95203.97;;;;
2020/10/17 02:30:49;;;;;;;36.05;21.75;;;;;;;6.53;100;95203.97;;;;
2020/10/17 02:31:49;;;;;;;36.05;21.75;;;;;;;6.53;100;95203.97;;;;
2020/10/17 02:32:51;;;;;;;36.05;21.75;;;;;;;6.53;100;95203.97;;;;
2020/10/17 02:33:51;;;;;;;36.05;21.75;;;;;;;6.53;100;95203.97;;;;
2020/10/17 02:34:52;;;;;;;36.05;21.75;;;;;;;6.53;100;95203.97;;;;
2020/10/17 02:35:52;;;;;;;36.05;21.75;;;;;;;6.53;100;95203.97;;;;
2020/10/17 02:36:53;;;;;;;36.05;21.75;;;;;;;6.53;100;95203.97;;;;
2020/10/17 02:37:54;;;;;;;39;21.8;;;;;;;6.51;100;95200.16;;;;
2020/10/17 02:38:54;;;;;;;39;21.8;;;;;;;6.51;100;95200.16;;;;
2020/10/17 02:39:55;;;;;;;39;21.8;;;;;;;6.51;100;95200.16;;;;
2020/10/17 02:40:55;;;;;;;39;21.8;;;;;;;6.51;100;95200.16;;;;
2020/10/17 02:41:57;;;;;;;39;21.8;;;;;;;6.51;100;95200.16;;;;
2020/10/17 02:42:57;;;;;;;39;21.8;;;;;;;6.51;100;95200.16;;;;
2020/10/17 02:43:58;;;;;;;39;21.8;;;;;;;6.51;100;95200.16;;;;
2020/10/17 02:44:58;;;;;;;39;21.8;;;;;;;6.51;100;95200.16;;;;
2020/10/17 02:45:59;;;;;;;39;21.8;;;;;;;6.51;100;95200.16;;;;
2020/10/17 02:47:00;;;;;;;39;21.8;;;;;;;6.51;100;95200.16;;;;
2020/10/17 02:48:00;;;;;;;41.7;22.05;;;;;;;6.51;100;95197.86;;;;
2020/10/17 02:49:01;;;;;;;41.7;22.05;;;;;;;6.51;100;95197.86;;;;
2020/10/17 02:50:01;;;;;;;41.7;22.05;;;;;;;6.51;100;95197.86;;;;
2020/10/17 02:51:03;;;;;;;41.7;22.05;;;;;;;6.51;100;95197.86;;;;
2020/10/17 02:52:03;;;;;;;41.7;22.05;;;;;;;6.51;100;95197.86;;;;
2020/10/17 02:53:04;;;;;;;41.7;22.05;;;;;;;6.51;100;95197.86;;;;
2020/10/17 02:54:05;;;;;;;41.7;22.05;;;;;;;6.51;100;95197.86;;;;
2020/10/17 02:55:06;;;;;;;41.7;22.05;;;;;;;6.51;100;95197.86;;;;
2020/10/17 02:56:31;;;;;;;41.7;22.05;;;;;;;6.51;100;95197.86;;;;
2020/10/17 02:57:32;;;;;;;41.7;22.05;;;;;;;6.51;100;95197.86;;;;
2020/10/17 02:58:32;;;;;;;39.95;22.9;;;;;;;6.51;100;95206.87;;;;
2020/10/17 02:59:33;;;;;;;39.95;22.9;;;;;;;6.51;100;95206.87;;;;
2020/10/17 03:00:34;;;;;;;39.95;22.9;;;;;;;6.51;100;95206.87;;;;
2020/10/17 03:01:34;;;;;;;39.95;22.9;;;;;;;6.51;100;95206.87;;;;
2020/10/17 03:02:35;;;;;;;39.95;22.9;;;;;;;6.51;100;95206.87;;;;
2020/10/17 03:03:35;;;;;;;39.95;22.9;;;;;;;6.51;100;95206.87;;;;
2020/10/17 03:04:37;;;;;;;39.95;22.9;;;;;;;6.51;100;95206.87;;;;
2020/10/17 03:05:38;;;;;;;39.95;22.9;;;;;;;6.51;100;95206.87;;;;
2020/10/17 03:06:38;;;;;;;39.95;22.9;;;;;;;6.51;100;95206.87;;;;
2020/10/17 03:07:39;;;;;;;39.95;22.9;;;;;;;6.51;100;95206.87;;;;
2020/10/17 03:08:39;;;;;;;39.95;22.9;;;;;;;6.51;100;95206.87;;;;
2020/10/17 03:09:40;;;;;;;44.05;23.3;;;;;;;6.51;100;95216.77;;;;
2020/10/17 03:10:41;;;;;;;44.05;23.3;;;;;;;6.51;100;95216.77;;;;
2020/10/17 03:11:41;;;;;;;44.05;23.3;;;;;;;6.51;100;95216.77;;;;
2020/10/17 03:12:42;;;;;;;44.05;23.3;;;;;;;6.51;100;95216.77;;;;
2020/10/17 03:13:44;;;;;;;44.05;23.3;;;;;;;6.51;100;95216.77;;;;
2020/10/17 03:14:45;;;;;;;44.05;23.3;;;;;;;6.51;100;95216.77;;;;
2020/10/17 03:15:45;;;;;;;44.05;23.3;;;;;;;6.51;100;95216.77;;;;
2020/10/17 03:16:46;;;;;;;44.05;23.3;;;;;;;6.51;100;95216.77;;;;
2020/10/17 03:17:46;;;;;;;44.05;23.3;;;;;;;6.51;100;95216.77;;;;
2020/10/17 03:18:47;;;;;;;44.05;23.3;;;;;;;6.51;100;95216.77;;;;
2020/10/17 03:19:47;;;;;;;44.05;23.3;;;;;;;6.51;100;95216.77;;;;
2020/10/17 03:20:48;;;;;;;34.75001;21.45;;;;;;;6.5;100;95216.44;;;;
2020/10/17 03:21:49;;;;;;;34.75001;21.45;;;;;;;6.5;100;95216.44;;;;
2020/10/17 03:22:49;;;;;;;34.75001;21.45;;;;;;;6.5;100;95216.44;;;;
2020/10/17 03:23:50;;;;;;;34.75001;21.45;;;;;;;6.5;100;95216.44;;;;
2020/10/17 03:24:50;;;;;;;34.75001;21.45;;;;;;;6.5;100;95216.44;;;;
2020/10/17 03:25:51;;;;;;;34.75001;21.45;;;;;;;6.5;100;95216.44;;;;
2020/10/17 03:26:52;;;;;;;34.75001;21.45;;;;;;;6.5;100;95216.44;;;;
2020/10/17 03:27:52;;;;;;;34.75001;21.45;;;;;;;6.5;100;95216.44;;;;
2020/10/17 03:28:53;;;;;;;34.75001;21.45;;;;;;;6.5;100;95216.44;;;;
2020/10/17 03:29:53;;;;;;;34.75001;21.45;;;;;;;6.5;100;95216.44;;;;
2020/10/17 03:30:54;;;;;;;40.4;23.15;;;;;;;6.53;100;95210.67;;;;
2020/10/17 03:31:56;;;;;;;40.4;23.15;;;;;;;6.53;100;95210.67;;;;
2020/10/17 03:32:57;;;;;;;40.4;23.15;;;;;;;6.53;100;95210.67;;;;
2020/10/17 03:33:57;;;;;;;40.4;23.15;;;;;;;6.53;100;95210.67;;;;
2020/10/17 03:34:58;;;;;;;40.4;23.15;;;;;;;6.53;100;95210.67;;;;
2020/10/17 03:35:58;;;;;;;40.4;23.15;;;;;;;6.53;100;95210.67;;;;
2020/10/17 03:37:02;;;;;;;40.4;23.15;;;;;;;6.53;100;95210.67;;;;
2020/10/17 03:38:03;;;;;;;40.4;23.15;;;;;;;6.53;100;95210.67;;;;
2020/10/17 03:39:04;;;;;;;40.4;23.15;;;;;;;6.53;100;95210.67;;;;
2020/10/17 03:40:05;;;;;;;40.4;23.15;;;;;;;6.53;100;95210.67;;;;
2020/10/17 03:41:06;;;;;;;40.4;23.15;;;;;;;6.53;100;95210.67;;;;
2020/10/17 03:42:17;;;;;;;39.7;22.55;;;;;;;6.48;100;95222.44;;;;
2020/10/17 03:43:18;;;;;;;39.7;22.55;;;;;;;6.48;100;95222.44;;;;
2020/10/17 03:44:25;;;;;;;39.7;22.55;;;;;;;6.48;100;95222.44;;;;
2020/10/17 03:45:25;;;;;;;39.7;22.55;;;;;;;6.48;100;95222.44;;;;
2020/10/17 03:46:27;;;;;;;39.7;22.55;;;;;;;6.48;100;95222.44;;;;
2020/10/17 03:47:32;;;;;;;39.7;22.55;;;;;;;6.48;100;95222.44;;;;
2020/10/17 03:48:34;;;;;;;39.7;22.55;;;;;;;6.48;100;95222.44;;;;
2020/10/17 03:49:42;;;;;;;39.7;22.55;;;;;;;6.48;100;95222.44;;;;
2020/10/17 03:50:43;;;;;;;39.7;22.55;;;;;;;6.48;100;95222.44;;;;
2020/10/17 03:52:12;;;;;;;40.4;23.15;;;;;;;6.45;100;95224.3;;;;
2020/10/17 03:53:23;;;;;;;40.4;23.15;;;;;;;6.45;100;95224.3;;;;
2020/10/17 03:54:35;;;;;;;40.4;23.15;;;;;;;6.45;100;95224.3;;;;
2020/10/17 03:55:53;;;;;;;40.4;23.15;;;;;;;6.45;100;95224.3;;;;
2020/10/17 03:56:59;;;;;;;40.4;23.15;;;;;;;6.45;100;95224.3;;;;
2020/10/17 03:58:13;;;;;;;40.4;23.15;;;;;;;6.45;100;95224.3;;;;
2020/10/17 03:59:28;;;;;;;40.4;23.15;;;;;;;6.45;100;95224.3;;;;
2020/10/17 04:00:32;;;;;;;40.4;23.15;;;;;;;6.45;100;95224.3;;;;
2020/10/17 04:01:33;;;;;;;40.4;23.15;;;;;;;6.45;100;95224.3;;;;
2020/10/17 04:02:43;;;;;;;42.35;24.1;;;;;;;6.51;100;95222.96;;;;
2020/10/17 04:03:48;;;;;;;42.35;24.1;;;;;;;6.51;100;95222.96;;;;
2020/10/17 04:04:53;;;;;;;42.35;24.1;;;;;;;6.51;100;95222.96;;;;
2020/10/17 04:05:56;;;;;;;42.35;24.1;;;;;;;6.51;100;95222.96;;;;
2020/10/17 04:07:02;;;;;;;42.35;24.1;;;;;;;6.51;100;95222.96;;;;
2020/10/17 04:08:08;;;;;;;42.35;24.1;;;;;;;6.51;100;95222.96;;;;
2020/10/17 04:09:20;;;;;;;42.35;24.1;;;;;;;6.51;100;95222.96;;;;
2020/10/17 04:10:28;;;;;;;42.35;24.1;;;;;;;6.51;100;95222.96;;;;
2020/10/17 04:11:33;;;;;;;42.35;24.1;;;;;;;6.51;100;95222.96;;;;
2020/10/17 04:12:33;;;;;;;42.35;24.1;;;;;;;6.51;100;95222.96;;;;
2020/10/17 04:13:35;;;;;;;38.85;22.9;;;;;;;6.56;100;95228.09;;;;
2020/10/17 04:14:40;;;;;;;38.85;22.9;;;;;;;6.56;100;95228.09;;;;
2020/10/17 04:15:47;;;;;;;38.85;22.9;;;;;;;6.56;100;95228.09;;;;
2020/10/17 04:16:49;;;;;;;38.85;22.9;;;;;;;6.56;100;95228.09;;;;
2020/10/17 04:17:51;;;;;;;38.85;22.9;;;;;;;6.56;100;95228.09;;;;
2020/10/17 04:18:53;;;;;;;38.85;22.9;;;;;;;6.56;100;95228.09;;;;
2020/10/17 04:19:54;;;;;;;38.85;22.9;;;;;;;6.56;100;95228.09;;;;
2020/10/17 04:21:00;;;;;;;38.85;22.9;;;;;;;6.56;100;95228.09;;;;
2020/10/17 04:22:05;;;;;;;38.85;22.9;;;;;;;6.56;100;95228.09;;;;
2020/10/17 04:23:09;;;;;;;38.85;22.9;;;;;;;6.56;100;95228.09;;;;
2020/10/17 04:24:13;;;;;;;40.6;22.75;;;;;;;6.57;100;95225.19;;;;
2020/10/17 04:25:16;;;;;;;40.6;22.75;;;;;;;6.57;100;95225.19;;;;
2020/10/17 04:26:16;;;;;;;40.6;22.75;;;;;;;6.57;100;95225.19;;;;
2020/10/17 04:27:24;;;;;;;40.6;22.75;;;;;;;6.57;100;95225.19;;;;
2020/10/17 04:28:25;;;;;;;40.6;22.75;;;;;;;6.57;100;95225.19;;;;
2020/10/17 04:29:26;;;;;;;40.6;22.75;;;;;;;6.57;100;95225.19;;;;
2020/10/17 04:30:28;;;;;;;40.6;22.75;;;;;;;6.57;100;95225.19;;;;
2020/10/17 04:31:36;;;;;;;40.6;22.75;;;;;;;6.57;100;95225.19;;;;
2020/10/17 04:32:40;;;;;;;40.6;22.75;;;;;;;6.57;100;95225.19;;;;
2020/10/17 04:33:43;;;;;;;40.6;22.75;;;;;;;6.57;100;95225.19;;;;
2020/10/17 04:34:45;;;;;;;42.95;24.1;;;;;;;6.58;100;95226.95;;;;
2020/10/17 04:35:45;;;;;;;42.95;24.1;;;;;;;6.58;100;95226.95;;;;
2020/10/17 04:36:53;;;;;;;42.95;24.1;;;;;;;6.58;100;95226.95;;;;
2020/10/17 04:38:00;;;;;;;42.95;24.1;;;;;;;6.58;100;95226.95;;;;
2020/10/17 04:39:01;;;;;;;42.95;24.1;;;;;;;6.58;100;95226.95;;;;
2020/10/17 04:40:18;;;;;;;42.95;24.1;;;;;;;6.58;100;95226.95;;;;
2020/10/17 04:41:21;;;;;;;42.95;24.1;;;;;;;6.58;100;95226.95;;;;
2020/10/17 04:42:26;;;;;;;42.95;24.1;;;;;;;6.58;100;95226.95;;;;
2020/10/17 04:43:30;;;;;;;42.95;24.1;;;;;;;6.58;100;95226.95;;;;
2020/10/17 04:44:32;;;;;;;42.95;24.1;;;;;;;6.58;100;95226.95;;;;
2020/10/17 04:45:33;;;;;;;42.55;23.8;;;;;;;6.56;100;95231.19;;;;
2020/10/17 04:46:33;;;;;;;42.55;23.8;;;;;;;6.56;100;95231.19;;;;
2020/10/17 04:47:37;;;;;;;42.55;23.8;;;;;;;6.56;100;95231.19;;;;
2020/10/17 04:48:37;;;;;;;42.55;23.8;;;;;;;6.56;100;95231.19;;;;
2020/10/17 04:49:38;;;;;;;42.55;23.8;;;;;;;6.56;100;95231.19;;;;
2020/10/17 04:50:39;;;;;;;42.55;23.8;;;;;;;6.56;100;95231.19;;;;
2020/10/17 04:51:39;;;;;;;42.55;23.8;;;;;;;6.56;100;95231.19;;;;
2020/10/17 04:52:43;;;;;;;42.55;23.8;;;;;;;6.56;100;95231.19;;;;
2020/10/17 04:53:44;;;;;;;42.55;23.8;;;;;;;6.56;100;95231.19;;;;
2020/10/17 04:54:45;;;;;;;42.55;23.8;;;;;;;6.56;100;95231.19;;;;
2020/10/17 04:55:45;;;;;;;42.55;23.8;;;;;;;6.56;100;95231.19;;;;
2020/10/17 04:56:48;;;;;;;46.95;23.95;;;;;;;6.55;100;95236.22;;;;
2020/10/17 04:57:53;;;;;;;46.95;23.95;;;;;;;6.55;100;95236.22;;;;
2020/10/17 04:59:00;;;;;;;46.95;23.95;;;;;;;6.55;100;95236.22;;;;
2020/10/17 05:00:23;;;;;;;46.95;23.95;;;;;;;6.55;100;95236.22;;;;
2020/10/17 05:01:24;;;;;;;46.95;23.95;;;;;;;6.55;100;95236.22;;;;
2020/10/17 05:02:27;;;;;;;46.95;23.95;;;;;;;6.55;100;95236.22;;;;
2020/10/17 05:03:28;;;;;;;46.95;23.95;;;;;;;6.55;100;95236.22;;;;
2020/10/17 05:04:28;;;;;;;46.95;23.95;;;;;;;6.55;100;95236.22;;;;
2020/10/17 05:05:33;;;;;;;46.95;23.95;;;;;;;6.55;100;95236.22;;;;
2020/10/17 05:06:34;;;;;;;40.1;22.4;;;;;;;6.55;100;95234.88;;;;
2020/10/17 05:08:21;;;;;;;40.1;22.4;;;;;;;6.55;100;95234.88;;;;
2020/10/17 05:09:42;;;;;;;40.1;22.4;;;;;;;6.55;100;95234.88;;;;
2020/10/17 05:12:09;;;;;;;40.1;22.4;;;;;;;6.55;100;95234.88;;;;
2020/10/17 05:13:26;;;;;;;40.1;22.4;;;;;;;6.55;100;95234.88;;;;
2020/10/17 05:14:31;;;;;;;40.1;22.4;;;;;;;6.55;100;95234.88;;;;
2020/10/17 05:15:48;;;;;;;40.1;22.4;;;;;;;6.55;100;95234.88;;;;
2020/10/17 05:17:08;;;;;;;40.1;22.4;;;;;;;6.55;100;95234.88;;;;
2020/10/17 05:19:45;;;;;;;40.2;21.95;;;;;;;6.55;100;95230.06;;;;
2020/10/17 05:20:59;;;;;;;40.2;21.95;;;;;;;6.55;100;95230.06;;;;
2020/10/17 05:22:12;;;;;;;40.2;21.95;;;;;;;6.55;100;95230.06;;;;
2020/10/17 05:23:44;;;;;;;40.2;21.95;;;;;;;6.55;100;95230.06;;;;
2020/10/17 05:28:59;;;;;;;39.35;23.1;;;;;;;6.55;100;95227.76;;;;
2020/10/17 05:30:26;;;;;;;39.35;23.1;;;;;;;6.55;100;95227.76;;;;
2020/10/17 05:32:13;;;;;;;39.35;23.1;;;;;;;6.55;100;95227.76;;;;
2020/10/17 05:33:29;;;;;;;39.35;23.1;;;;;;;6.55;100;95227.76;;;;
2020/10/17 05:35:16;;;;;;;39.35;23.1;;;;;;;6.55;100;95227.76;;;;
2020/10/17 05:36:33;;;;;;;39.35;23.1;;;;;;;6.55;100;95227.76;;;;
2020/10/17 05:37:38;;;;;;;39.35;23.1;;;;;;;6.55;100;95227.76;;;;
2020/10/17 05:39:16;;;;;;;38.85;22.7;;;;;;;6.49;100;95233.48;;;;
2020/10/17 05:40:22;;;;;;;38.85;22.7;;;;;;;6.49;100;95233.48;;;;
2020/10/17 05:41:25;;;;;;;38.85;22.7;;;;;;;6.49;100;95233.48;;;;
2020/10/17 05:42:36;;;;;;;38.85;22.7;;;;;;;6.49;100;95233.48;;;;
2020/10/17 05:43:47;;;;;;;38.85;22.7;;;;;;;6.49;100;95233.48;;;;
2020/10/17 05:45:01;;;;;;;38.85;22.7;;;;;;;6.49;100;95233.48;;;;
2020/10/17 05:46:11;;;;;;;38.85;22.7;;;;;;;6.49;100;95233.48;;;;
2020/10/17 05:47:13;;;;;;;38.85;22.7;;;;;;;6.49;100;95233.48;;;;
2020/10/17 05:48:23;;;;;;;38.85;22.7;;;;;;;6.49;100;95233.48;;;;
2020/10/17 05:49:34;;;;;;;38.89999;22.35;;;;;;;6.44;100;95238.76;;;;
2020/10/17 05:50:35;;;;;;;38.89999;22.35;;;;;;;6.44;100;95238.76;;;;
2020/10/17 05:51:40;;;;;;;38.89999;22.35;;;;;;;6.44;100;95238.76;;;;
2020/10/17 05:53:14;;;;;;;38.89999;22.35;;;;;;;6.44;100;95238.76;;;;
2020/10/17 05:55:31;;;;;;;38.89999;22.35;;;;;;;6.44;100;95238.76;;;;
2020/10/17 05:56:52;;;;;;;38.89999;22.35;;;;;;;6.44;100;95238.76;;;;
2020/10/17 05:58:26;;;;;;;38.89999;22.35;;;;;;;6.44;100;95238.76;;;;
2020/10/17 05:59:51;;;;;;;39.55;22.6;;;;;;;6.42;100;95245.26;;;;
2020/10/17 06:02:07;;;;;;;39.55;22.6;;;;;;;6.42;100;95245.26;;;;
2020/10/17 06:07:36;;;;;;;39.55;22.6;;;;;;;6.42;100;95245.26;;;;
2020/10/17 06:08:55;;;;;;;39.55;22.6;;;;;;;6.42;100;95245.26;;;;
2020/10/17 06:10:29;;;;;;;37.4;22;;;;;;;6.43;100;95256.28;;;;
2020/10/17 06:11:37;;;;;;;37.4;22;;;;;;;6.43;100;95256.28;;;;
2020/10/17 06:12:48;;;;;;;37.4;22;;;;;;;6.43;100;95256.28;;;;
2020/10/17 06:13:57;;;;;;;37.4;22;;;;;;;6.43;100;95256.28;;;;
2020/10/17 06:14:58;;;;;;;37.4;22;;;;;;;6.43;100;95256.28;;;;
2020/10/17 06:15:58;;;;;;;37.4;22;;;;;;;6.43;100;95256.28;;;;
2020/10/17 06:17:03;;;;;;;37.4;22;;;;;;;6.43;100;95256.28;;;;
2020/10/17 06:18:15;;;;;;;37.4;22;;;;;;;6.43;100;95256.28;;;;
2020/10/17 06:19:21;;;;;;;37.4;22;;;;;;;6.43;100;95256.28;;;;
2020/10/17 06:20:31;;;;;;;37.4;22;;;;;;;6.43;100;95256.28;;;;
2020/10/17 06:21:37;;;;;;;41.10001;24.25;;;;;;;6.53;100;95260.71;;;;
2020/10/17 06:22:54;;;;;;;41.10001;24.25;;;;;;;6.53;100;95260.71;;;;
2020/10/17 06:24:12;;;;;;;41.10001;24.25;;;;;;;6.53;100;95260.71;;;;
2020/10/17 06:25:41;;;;;;;41.10001;24.25;;;;;;;6.53;100;95260.71;;;;
2020/10/17 06:27:00;;;;;;;41.10001;24.25;;;;;;;6.53;100;95260.71;;;;
2020/10/17 06:28:09;;;;;;;41.10001;24.25;;;;;;;6.53;100;95260.71;;;;
2020/10/17 06:29:22;;;;;;;41.10001;24.25;;;;;;;6.53;100;95260.71;;;;
2020/10/17 06:30:24;;;;;;;41.10001;24.25;;;;;;;6.53;100;95260.71;;;;
2020/10/17 06:31:26;;;;;;;41.10001;24.25;;;;;;;6.53;100;95260.71;;;;
2020/10/17 06:32:31;;;;;;;36.55;22.85;;;;;;;6.66;100;95268.69;;;;
2020/10/17 06:33:34;;;;;;;36.55;22.85;;;;;;;6.66;100;95268.69;;;;
2020/10/17 06:34:36;;;;;;;36.55;22.85;;;;;;;6.66;100;95268.69;;;;
2020/10/17 06:35:45;;;;;;;36.55;22.85;;;;;;;6.66;100;95268.69;;;;
2020/10/17 06:36:52;;;;;;;36.55;22.85;;;;;;;6.66;100;95268.69;;;;
2020/10/17 06:37:58;;;;;;;36.55;22.85;;;;;;;6.66;100;95268.69;;;;
2020/10/17 06:39:12;;;;;;;36.55;22.85;;;;;;;6.66;100;95268.69;;;;
2020/10/17 06:40:18;;;;;;;36.55;22.85;;;;;;;6.66;100;95268.69;;;;
2020/10/17 06:41:29;;;;;;;36.55;22.85;;;;;;;6.66;100;95268.69;;;;
2020/10/17 06:42:39;;;;;;;36.75;22.9;;;;;;;6.78;100;95281.34;;;;
2020/10/17 06:44:01;;;;;;;36.75;22.9;;;;;;;6.78;100;95281.34;;;;
2020/10/17 06:45:11;;;;;;;36.75;22.9;;;;;;;6.78;100;95281.34;;;;